• Join FlightAware (Why Join?)
  • Login
  • US Flag 
10:25PM EDT


 

Airport Tracker/Info


-or-


 

Live Flight TrackerFlight Track Log ✈ SWA3853 ✈ 01-May-2013 ✈ KMCI - KDAL

Flight Track Log - Related Links

Times and Time Zones

All times are in EDT time to prevent confusion due to time zone crossing. See the SWA3853 flight status page for this flight to view local times or setup timezone preferences in your user account.

Time Position Orientation Groundspeed Altitude Reporting Facility
EDT Latitude Longitude Course Direction KTS MPH feet Rate Location/Type
02:47PM 39.3500 -94.7333 339° North 181 208 2,900  Level Kansas City TRACON
02:48PM 39.3403 -94.8017 260° West 222 255 7,100 3,840 Climbing Kansas City Center
02:49PM 39.2872 -94.8158 192° South 205 236 10,900 2,760 Climbing Kansas City Center
02:50PM 39.2014 -94.8342 189° South 297 342 12,900 2,580 Climbing Kansas City Center
02:51PM 39.1144 -94.8522 189° South 324 373 16,300 3,240 Climbing Kansas City Center
02:52PM 39.0039 -94.8753 189° South 355 409 19,700 3,000 Climbing Kansas City Center
02:53PM 38.9050 -94.8964 189° South 372 428 22,600 2,460 Climbing Kansas City Center
02:54PM 38.8014 -94.9167 189° South 389 448 24,800 2,220 Climbing Kansas City Center
02:55PM 38.6731 -94.9519 192° South 419 482 27,300 2,220 Climbing Kansas City Center
02:57PM 38.5614 -94.9911 195° South 432 497 29,400 2,280 Climbing Kansas City Center
02:58PM 38.4289 -95.0375 195° South 438 504 32,100 2,280 Climbing Kansas City Center
02:59PM 38.3181 -95.0756 195° South 431 496 34,200 1,380 Climbing Kansas City Center
03:00PM 38.1889 -95.1206 195° South 430 495 35,000 480 Climbing Kansas City Center
03:01PM 38.0778 -95.1600 196° South 434 499 35,200 480 Climbing Kansas City Center
03:02PM 37.9481 -95.2022 194° South 429 494 36,000 360 Climbing Kansas City Center
03:03PM 37.8356 -95.2378 194° South 429 494 36,000  Level Kansas City Center
03:04PM 37.7200 -95.2772 195° South 429 494 36,000  Level Kansas City Center
03:05PM 37.6061 -95.3186 196° South 427 491 36,000  Level Kansas City Center
03:06PM 37.4906 -95.3558 194° South 427 491 36,000  Level Kansas City Center
03:07PM 37.3503 -95.3883 190° South 427 491 36,000  Level Kansas City Center
03:08PM 37.2294 -95.3911 181° South 431 496 36,000  Level Kansas City Center
03:09PM 37.1094 -95.3978 183° South 431 496 36,000  Level Kansas City Center
03:10PM 36.9881 -95.4056 183° South 434 499 36,000  Level Kansas City Center
03:11PM 36.8664 -95.4119 182° South 436 502 36,000  Level Kansas City Center
03:12PM 36.7456 -95.4192 183° South 434 499 36,000  Level Kansas City Center
03:13PM 36.6000 -95.4281 183° South 435 501 36,000  Level Kansas City Center
03:14PM 36.4947 -95.4339 183° South 434 499 36,000  Level Kansas City Center
03:15PM 36.3722 -95.4411 183° South 436 502 36,000  Level Kansas City Center
03:16PM 36.2219 -95.4494 183° South 444 511 36,000  Level Kansas City Center
03:17PM 36.0992 -95.4550 182° South 442 509 36,000  Level Kansas City Center
03:18PM 35.9703 -95.4517 179° South 448 516 36,000  Level Kansas City Center
03:19PM 35.8472 -95.4350 174° South 444 511 36,000  Level Kansas City Center
03:20PM 35.7231 -95.4175 173° South 446 513 36,000  Level Kansas City Center
03:21PM 35.6217 -95.4067 175° South 447 514 36,000 -180 Level Fort Worth Center
03:22PM 35.4964 -95.3892 174° South 447 514 35,700 -540 Descending Fort Worth Center
03:23PM 35.3708 -95.3719 174° South 447 514 35,000 -360 Descending Fort Worth Center
03:24PM 35.2456 -95.3572 175° South 452 520 35,000  Level Fort Worth Center
03:25PM 35.1222 -95.3372 172° South 452 520 35,000  Level Fort Worth Center
03:26PM 34.9989 -95.3200 173° South 452 520 35,000  Level Fort Worth Center
03:27PM 34.8714 -95.3053 175° South 452 520 35,000  Level Fort Worth Center
03:28PM 34.7500 -95.2908 174° South 452 520 35,000 -420 Level Fort Worth Center
03:29PM 34.6317 -95.3289 195° South 428 493 34,200 -900 Descending Fort Worth Center
03:30PM 34.5369 -95.3994 212° Southwest 428 493 33,300 -900 Descending Fort Worth Center
03:31PM 34.4339 -95.4772 212° Southwest 434 499 32,400 -960 Descending Fort Worth Center
03:32PM 34.3306 -95.5525 211° Southwest 439 505 31,400 -1,020 Descending Fort Worth Center
03:33PM 34.2131 -95.6378 211° Southwest 439 505 30,400 -1,500 Descending Fort Worth Center
03:34PM 34.1097 -95.7178 213° Southwest 445 512 28,500 2,280 Descending Fort Worth Center
03:35PM 34.0189 -95.7822 210° Southwest 440 506 35,000 -3,900 Climbing Fort Worth Center
03:36PM 33.9114 -95.8617 212° Southwest 445 512 20,700 -8,940 Descending Fort Worth Center
03:37PM 33.8058 -95.9386 211° Southwest 448 516 17,200 -3,420 Descending Fort Worth Center
03:38PM 33.6919 -96.0231 212° Southwest 442 509 13,900 -2,940 Descending Fort Worth Center
03:39PM 33.6050 -96.0867 211° Southwest 424 488 11,400 -1,980 Descending Fort Worth Center
03:40PM 33.5033 -96.1606 211° Southwest 400 460 10,000 -720 Descending Fort Worth Center
03:41PM 33.4267 -96.2164 211° Southwest 379 436 10,000  Level Fort Worth Center
03:42PM 33.3356 -96.2847 212° Southwest 363 418 10,000 -360 Level Fort Worth Center
03:43PM 33.2672 -96.3353 212° Southwest 335 386 9,300 -780 Descending Fort Worth Center
03:44PM 33.2094 -96.4178 230° Southwest 306 352 8,500 -900 Descending Fort Worth Center
03:45PM 33.1681 -96.4878 235° Southwest 299 344 7,600 -1,020 Descending Fort Worth Center
03:46PM 33.1167 -96.5728 234° Southwest 293 337 6,500 -1,260 Descending Fort Worth Center
03:47PM 33.0711 -96.6450 233° Southwest 286 329 5,100 -1,380 Descending Fort Worth Center
03:48PM 33.0297 -96.7122 234° Southwest 286 329 3,800 -960 Descending Fort Worth Center
03:49PM 32.9667 -96.8000 229° Southwest 265 305 3,000 -300 Descending Dallas / Fort Worth TRACON
03:50PM 32.9333 -96.8667 239° Southwest 170 196 3,100 -660 Climbing Dallas / Fort Worth TRACON
03:51PM 32.9000 -96.9000 220° Southwest 147 169 1,700 -1,200 Descending Dallas / Fort Worth TRACON
03:52PM 32.8667 -96.8667 140° Southeast 136 157 900 12,300 Descending Dallas / Fort Worth TRACON
03:54PM 32.8197 -96.8719 185° South 114 131 35,000 12,600 Climbing Fort Worth Center
03:55PM 32.7883 -96.8672 173° South 114 131 35,000  Level Fort Worth Center